Time;durP1;ratioP1;P1;durP2;ratioP2;P2;SDS_P1;SDS_P2;PMS_P1;PMS_P2;Temp;Humidity;BMP_temperature;BMP_pressure;BME280_temperature;BME280_humidity;BME280_pressure;Samples;Min_cycle;Max_cycle;Signal;HPM_P1;HPM_P2
2021/12/19 00:02:13;;;;;;;5.03;2.97;;;;;;;;;;4985888;28;20098;-81
2021/12/19 00:10:09;;;;;;;4.93;2.60;;;;;;;;;;4987734;28;20086;-84
2021/12/19 00:12:35;;;;;;;10.65;2.97;;;;;;;;;;4997998;28;20080;-81
2021/12/19 00:15:01;;;;;;;4.05;2.50;;;;;;;;;;4997992;28;20007;-82
2021/12/19 00:17:27;;;;;;;4.03;2.55;;;;;;;;;;4993475;28;20027;-82
2021/12/19 00:19:53;;;;;;;7.15;3.15;;;;;;;;;;4990483;28;20058;-82
2021/12/19 00:22:19;;;;;;;4.00;2.35;;;;;;;;;;4988719;28;20057;-82
2021/12/19 00:24:45;;;;;;;5.97;3.22;;;;;;;;;;4989312;28;20039;-82
2021/12/19 00:27:11;;;;;;;4.70;2.85;;;;;;;;;;4989457;28;20035;-81
2021/12/19 00:29:37;;;;;;;5.13;2.72;;;;;;;;;;4989028;28;20023;-82
2021/12/19 00:32:03;;;;;;;6.88;2.25;;;;;;;;;;4987579;28;20477;-81
2021/12/19 00:34:29;;;;;;;9.68;2.42;;;;;;;;;;4988812;28;20023;-82
2021/12/19 00:36:55;;;;;;;2.72;1.92;;;;;;;;;;4987762;28;20033;-82
2021/12/19 00:39:21;;;;;;;3.97;2.53;;;;;;;;;;4987477;28;20056;-82
2021/12/19 00:41:52;;;;;;;5.32;2.63;;;;;;;;;;4987643;28;20556;-82
2021/12/19 00:44:22;;;;;;;9.13;2.35;;;;;;;;;;4986613;28;20054;-81
2021/12/19 00:46:51;;;;;;;4.38;2.67;;;;;;;;;;4984362;28;20042;-82
2021/12/19 00:49:18;;;;;;;8.52;3.00;;;;;;;;;;4986401;28;20033;-82
2021/12/19 00:51:45;;;;;;;3.60;2.45;;;;;;;;;;4986679;28;20018;-82
2021/12/19 00:54:11;;;;;;;6.07;2.22;;;;;;;;;;4986180;28;20035;-82
2021/12/19 00:56:38;;;;;;;15.07;2.60;;;;;;;;;;4985925;28;20023;-82
2021/12/19 00:59:05;;;;;;;20.83;2.50;;;;;;;;;;4986146;28;20041;-82
2021/12/19 01:01:32;;;;;;;7.95;3.08;;;;;;;;;;4985622;28;20081;-81
2021/12/19 01:03:58;;;;;;;7.47;2.88;;;;;;;;;;4983602;28;20562;-80
2021/12/19 01:06:24;;;;;;;4.25;2.50;;;;;;;;;;4985156;28;20054;-82
2021/12/19 01:08:50;;;;;;;6.70;2.80;;;;;;;;;;4984890;28;20081;-82
2021/12/19 01:11:16;;;;;;;12.10;3.17;;;;;;;;;;4985122;28;20015;-81
2021/12/19 01:13:43;;;;;;;3.42;2.33;;;;;;;;;;4984217;28;20034;-82
2021/12/19 01:16:09;;;;;;;3.45;2.13;;;;;;;;;;4978006;28;20392;-81
2021/12/19 01:18:35;;;;;;;9.63;2.28;;;;;;;;;;4983720;28;20031;-81
2021/12/19 01:21:01;;;;;;;3.63;2.60;;;;;;;;;;4984959;28;20031;-81
2021/12/19 01:23:27;;;;;;;11.05;2.75;;;;;;;;;;4981734;28;20400;-81
2021/12/19 01:25:53;;;;;;;5.07;2.15;;;;;;;;;;4983189;28;20170;-82
2021/12/19 01:28:19;;;;;;;7.90;2.58;;;;;;;;;;4983053;28;20039;-82
2021/12/19 01:30:45;;;;;;;4.20;2.38;;;;;;;;;;4982697;28;20035;-81
2021/12/19 01:33:11;;;;;;;5.90;2.60;;;;;;;;;;4982355;28;20019;-81
2021/12/19 01:35:37;;;;;;;4.25;2.40;;;;;;;;;;4982688;28;20027;-82
2021/12/19 01:38:03;;;;;;;4.22;2.85;;;;;;;;;;4979383;28;20035;-82
2021/12/19 01:40:30;;;;;;;3.30;2.50;;;;;;;;;;4983821;28;20030;-82
2021/12/19 01:42:57;;;;;;;23.15;2.97;;;;;;;;;;4989729;28;20027;-82
2021/12/19 01:45:41;;;;;;;6.07;2.20;;;;;;;;;;4991230;28;20038;-81
2021/12/19 01:48:10;;;;;;;4.07;2.63;;;;;;;;;;4990175;28;20097;-81
2021/12/19 01:50:36;;;;;;;6.10;2.97;;;;;;;;;;4991547;28;20050;-81
2021/12/19 01:53:03;;;;;;;18.75;3.40;;;;;;;;;;4991113;28;20145;-82
2021/12/19 01:55:29;;;;;;;4.80;2.65;;;;;;;;;;4990334;28;20030;-82
2021/12/19 01:57:55;;;;;;;4.22;2.35;;;;;;;;;;4991030;28;20022;-81
2021/12/19 02:00:26;;;;;;;20.42;3.42;;;;;;;;;;4991402;28;20061;-82
2021/12/19 02:02:52;;;;;;;4.70;3.08;;;;;;;;;;4990593;28;20045;-82
2021/12/19 02:05:18;;;;;;;3.75;2.60;;;;;;;;;;4991500;28;20027;-82
2021/12/19 02:07:49;;;;;;;7.68;2.88;;;;;;;;;;4990081;28;20030;-82
2021/12/19 02:10:18;;;;;;;4.18;2.20;;;;;;;;;;4990946;28;20034;-81
2021/12/19 02:12:45;;;;;;;2.97;2.33;;;;;;;;;;4992047;28;20111;-82
2021/12/19 02:15:16;;;;;;;2.97;2.25;;;;;;;;;;4992308;28;20050;-81
2021/12/19 02:17:42;;;;;;;3.10;2.20;;;;;;;;;;4991811;28;20127;-82
2021/12/19 02:20:10;;;;;;;4.03;2.50;;;;;;;;;;4990714;28;20043;-82
2021/12/19 02:22:36;;;;;;;18.30;3.88;;;;;;;;;;4989702;28;20778;-82
2021/12/19 02:25:02;;;;;;;14.18;3.50;;;;;;;;;;4990995;28;20031;-81
2021/12/19 02:27:29;;;;;;;50.60;4.32;;;;;;;;;;4992044;28;20034;-82
2021/12/19 02:29:56;;;;;;;6.43;3.40;;;;;;;;;;4991445;28;20503;-82
2021/12/19 02:32:23;;;;;;;5.07;2.97;;;;;;;;;;4990196;28;20097;-82
2021/12/19 02:34:51;;;;;;;7.57;3.00;;;;;;;;;;4990763;28;20019;-82
2021/12/19 02:48:17;;;;;;;4.93;3.30;;;;;;;;;;4987979;28;20073;-82
2021/12/19 02:50:49;;;;;;;25.80;4.10;;;;;;;;;;4987370;28;20027;-81
2021/12/19 02:53:19;;;;;;;9.45;3.55;;;;;;;;;;4987235;28;20065;-81
2021/12/19 02:55:45;;;;;;;5.00;2.90;;;;;;;;;;4987127;28;20051;-81
2021/12/19 02:58:12;;;;;;;7.97;4.60;;;;;;;;;;4985714;28;20039;-81
2021/12/19 03:00:38;;;;;;;15.13;3.70;;;;;;;;;;4987256;28;20027;-81
2021/12/19 03:03:05;;;;;;;8.27;4.43;;;;;;;;;;4991133;28;20035;-80
2021/12/19 03:05:32;;;;;;;5.25;3.72;;;;;;;;;;4997547;28;20070;-82
2021/12/19 03:08:00;;;;;;;10.57;3.50;;;;;;;;;;4980129;28;20035;-82
2021/12/19 03:18:25;;;;;;;24.60;3.88;;;;;;;;;;5000123;28;20038;-82
2021/12/19 03:20:51;;;;;;;7.55;3.38;;;;;;;;;;4992673;28;20089;-81
2021/12/19 03:23:17;;;;;;;6.50;4.03;;;;;;;;;;4990658;28;20027;-81
2021/12/19 03:25:43;;;;;;;7.63;4.22;;;;;;;;;;4990028;28;20019;-82
2021/12/19 03:28:10;;;;;;;9.13;4.68;;;;;;;;;;4989144;28;20027;-81
2021/12/19 03:30:38;;;;;;;10.73;4.45;;;;;;;;;;4990859;28;20030;-81
2021/12/19 03:33:04;;;;;;;8.05;4.43;;;;;;;;;;4990123;28;20033;-81
2021/12/19 03:35:31;;;;;;;9.38;4.40;;;;;;;;;;4989894;28;20668;-81
2021/12/19 03:37:58;;;;;;;8.07;4.35;;;;;;;;;;4990975;28;20027;-82
2021/12/19 03:40:35;;;;;;;7.88;4.20;;;;;;;;;;4996621;28;20155;-82
2021/12/19 03:43:01;;;;;;;9.98;4.82;;;;;;;;;;4996949;28;20046;-82
2021/12/19 03:45:27;;;;;;;6.85;3.97;;;;;;;;;;4991123;28;20026;-82
2021/12/19 03:47:53;;;;;;;12.57;4.40;;;;;;;;;;4993077;28;20031;-82
2021/12/19 03:50:22;;;;;;;17.15;3.40;;;;;;;;;;4992209;28;20054;-82
2021/12/19 03:52:49;;;;;;;6.50;3.20;;;;;;;;;;4993322;28;20019;-82
2021/12/19 03:55:15;;;;;;;7.78;3.75;;;;;;;;;;4992719;28;20027;-82
2021/12/19 03:57:41;;;;;;;6.05;3.45;;;;;;;;;;4992954;28;20054;-81
2021/12/19 04:00:10;;;;;;;5.93;3.45;;;;;;;;;;4993117;28;20027;-81
2021/12/19 04:02:36;;;;;;;18.40;3.95;;;;;;;;;;4989321;28;20030;-81
2021/12/19 04:05:03;;;;;;;4.90;3.30;;;;;;;;;;4989089;28;20027;-82
2021/12/19 04:07:29;;;;;;;16.65;3.42;;;;;;;;;;4986090;28;20031;-81
2021/12/19 04:09:56;;;;;;;27.85;3.78;;;;;;;;;;4988018;28;20027;-81
2021/12/19 04:12:25;;;;;;;44.40;4.78;;;;;;;;;;4987926;28;20035;-81
2021/12/19 04:14:51;;;;;;;12.00;3.13;;;;;;;;;;4988350;28;20023;-82
2021/12/19 04:17:17;;;;;;;9.88;3.17;;;;;;;;;;4987201;28;20070;-81
2021/12/19 04:19:43;;;;;;;17.38;2.90;;;;;;;;;;4987893;28;20401;-81
2021/12/19 04:22:09;;;;;;;12.23;3.35;;;;;;;;;;4988384;28;20026;-82
2021/12/19 04:24:35;;;;;;;13.43;3.40;;;;;;;;;;4987804;28;20431;-82
2021/12/19 04:27:01;;;;;;;8.65;4.38;;;;;;;;;;4985761;28;20022;-81
2021/12/19 04:29:27;;;;;;;10.48;4.53;;;;;;;;;;4986758;28;20039;-81
2021/12/19 04:31:53;;;;;;;8.52;4.88;;;;;;;;;;4988149;28;20035;-81
2021/12/19 04:34:20;;;;;;;7.72;4.30;;;;;;;;;;4987725;28;20031;-82
2021/12/19 04:36:51;;;;;;;10.90;4.70;;;;;;;;;;4986594;28;20397;-81
2021/12/19 04:39:28;;;;;;;6.72;3.85;;;;;;;;;;4985225;28;20119;-81
2021/12/19 04:44:44;;;;;;;8.00;4.53;;;;;;;;;;4987311;28;20030;-81
2021/12/19 04:53:08;;;;;;;8.85;4.55;;;;;;;;;;4986857;28;20559;-82
2021/12/19 05:06:36;;;;;;;7.32;3.58;;;;;;;;;;4985359;28;20041;-80
2021/12/19 05:14:32;;;;;;;5.57;3.53;;;;;;;;;;4996520;28;20058;-81
2021/12/19 05:17:07;;;;;;;5.07;3.50;;;;;;;;;;4986679;28;20031;-81
2021/12/19 05:20:08;;;;;;;6.43;3.95;;;;;;;;;;4989440;28;20034;-81
2021/12/19 05:22:40;;;;;;;4.25;2.42;;;;;;;;;;4988425;28;20047;-82
2021/12/19 05:25:17;;;;;;;3.20;2.17;;;;;;;;;;4988311;28;20030;-81
2021/12/19 05:27:46;;;;;;;2.88;2.10;;;;;;;;;;4988530;28;20026;-82
2021/12/19 05:30:13;;;;;;;4.47;2.60;;;;;;;;;;4985875;28;20046;-81
2021/12/19 05:32:40;;;;;;;3.80;2.55;;;;;;;;;;4986602;28;20408;-81
2021/12/19 05:35:07;;;;;;;3.40;2.58;;;;;;;;;;4987277;28;20027;-81
2021/12/19 05:45:48;;;;;;;5.32;3.55;;;;;;;;;;4987022;28;20037;-80
2021/12/19 05:48:14;;;;;;;6.38;3.65;;;;;;;;;;4985632;28;20030;-82
2021/12/19 05:50:40;;;;;;;5.03;3.50;;;;;;;;;;4986319;28;20026;-80
2021/12/19 05:53:06;;;;;;;3.53;3.00;;;;;;;;;;4985470;28;20030;-80
2021/12/19 05:55:32;;;;;;;4.35;2.90;;;;;;;;;;4984985;28;20041;-80
2021/12/19 05:57:59;;;;;;;4.47;3.05;;;;;;;;;;4982888;28;20061;-80
2021/12/19 06:00:25;;;;;;;3.10;2.55;;;;;;;;;;4984174;28;20030;-81
2021/12/19 06:02:51;;;;;;;8.18;2.63;;;;;;;;;;4982561;28;20110;-82
2021/12/19 06:05:17;;;;;;;4.25;3.08;;;;;;;;;;4983499;28;20037;-82
2021/12/19 06:07:43;;;;;;;2.35;2.15;;;;;;;;;;4984659;28;20042;-82
2021/12/19 06:10:10;;;;;;;4.50;2.90;;;;;;;;;;4983565;28;20027;-83
2021/12/19 06:12:37;;;;;;;2.88;2.35;;;;;;;;;;4983088;28;20505;-83
2021/12/19 06:15:04;;;;;;;3.17;2.33;;;;;;;;;;4983241;28;20023;-82
2021/12/19 06:17:30;;;;;;;2.20;2.00;;;;;;;;;;4982999;28;20023;-83
2021/12/19 06:19:55;;;;;;;2.17;1.92;;;;;;;;;;4983484;28;20061;-82
2021/12/19 06:22:21;;;;;;;5.03;2.20;;;;;;;;;;4982491;28;20042;-82
2021/12/19 06:24:47;;;;;;;2.92;2.30;;;;;;;;;;4983114;28;20436;-82
2021/12/19 06:27:13;;;;;;;2.78;2.50;;;;;;;;;;4981115;28;20061;-82
2021/12/19 06:29:39;;;;;;;2.67;2.15;;;;;;;;;;4982589;28;20037;-82
2021/12/19 06:32:05;;;;;;;3.30;2.33;;;;;;;;;;4982616;28;20027;-82
2021/12/19 06:34:31;;;;;;;3.13;2.58;;;;;;;;;;4978950;28;20030;-83
2021/12/19 06:36:57;;;;;;;4.70;3.03;;;;;;;;;;4978817;28;20023;-83
2021/12/19 06:39:24;;;;;;;4.38;2.40;;;;;;;;;;4981289;28;20098;-83
2021/12/19 06:41:50;;;;;;;3.70;2.90;;;;;;;;;;4981526;28;20031;-83
2021/12/19 06:44:16;;;;;;;8.02;3.38;;;;;;;;;;4984626;28;20449;-84
2021/12/19 06:46:43;;;;;;;4.75;3.50;;;;;;;;;;4983809;28;20058;-83
2021/12/19 06:49:09;;;;;;;7.30;4.10;;;;;;;;;;4984085;28;20030;-82
2021/12/19 06:51:35;;;;;;;5.28;3.25;;;;;;;;;;4985251;28;20026;-82
2021/12/19 06:54:02;;;;;;;6.07;3.45;;;;;;;;;;4984498;28;20164;-82
2021/12/19 06:56:28;;;;;;;6.78;3.35;;;;;;;;;;4984256;28;20026;-82
2021/12/19 06:58:54;;;;;;;8.00;3.72;;;;;;;;;;4983276;28;20050;-82
2021/12/19 07:01:20;;;;;;;11.13;4.03;;;;;;;;;;4984472;28;20023;-84
2021/12/19 07:03:46;;;;;;;7.30;3.55;;;;;;;;;;4981836;28;20031;-85
2021/12/19 07:06:12;;;;;;;9.88;4.63;;;;;;;;;;4983616;28;20031;-84
2021/12/19 07:08:38;;;;;;;11.18;4.95;;;;;;;;;;4983610;28;20030;-85
2021/12/19 07:11:04;;;;;;;14.80;5.63;;;;;;;;;;4981174;28;20035;-82
2021/12/19 07:13:30;;;;;;;8.80;4.53;;;;;;;;;;4984316;28;20099;-82
2021/12/19 07:15:56;;;;;;;13.20;5.93;;;;;;;;;;4972179;28;20019;-83
2021/12/19 07:18:23;;;;;;;9.50;5.18;;;;;;;;;;4983065;28;20519;-82
2021/12/19 07:20:49;;;;;;;9.30;4.97;;;;;;;;;;4982846;28;20027;-82
2021/12/19 07:23:16;;;;;;;10.45;4.93;;;;;;;;;;4983597;28;20483;-83
2021/12/19 07:25:42;;;;;;;14.02;5.13;;;;;;;;;;4983752;28;20030;-83
2021/12/19 07:28:09;;;;;;;8.75;4.75;;;;;;;;;;4984745;28;20400;-84
2021/12/19 07:30:36;;;;;;;7.30;4.40;;;;;;;;;;4984779;28;20673;-83
2021/12/19 07:33:06;;;;;;;7.75;4.32;;;;;;;;;;4987284;28;20081;-84
2021/12/19 07:35:36;;;;;;;10.55;5.13;;;;;;;;;;4984669;28;20023;-84
2021/12/19 07:38:03;;;;;;;8.55;4.05;;;;;;;;;;4983575;28;20030;-83
2021/12/19 07:40:35;;;;;;;9.73;4.90;;;;;;;;;;4980905;28;20023;-83
2021/12/19 07:43:03;;;;;;;6.88;4.60;;;;;;;;;;4990977;28;20066;-82
2021/12/19 07:45:29;;;;;;;13.70;4.20;;;;;;;;;;4987498;28;20098;-83
2021/12/19 07:47:55;;;;;;;8.27;4.72;;;;;;;;;;4982134;28;20097;-82
2021/12/19 07:50:21;;;;;;;9.82;5.15;;;;;;;;;;4981540;28;20030;-83
2021/12/19 07:52:47;;;;;;;6.97;4.40;;;;;;;;;;4978644;28;20064;-84
2021/12/19 07:55:13;;;;;;;8.60;4.60;;;;;;;;;;4985536;28;20026;-83
2021/12/19 07:57:40;;;;;;;8.93;4.50;;;;;;;;;;4981681;28;20031;-84
2021/12/19 08:00:07;;;;;;;9.25;4.68;;;;;;;;;;4980254;28;20035;-83
2021/12/19 08:02:34;;;;;;;9.68;4.70;;;;;;;;;;4979931;28;20035;-85
2021/12/19 08:05:00;;;;;;;11.27;5.10;;;;;;;;;;4980285;28;20034;-83
2021/12/19 08:07:26;;;;;;;7.50;4.10;;;;;;;;;;4979672;28;20623;-84
2021/12/19 08:12:26;;;;;;;7.30;4.25;;;;;;;;;;4981302;28;20496;-84
2021/12/19 08:14:52;;;;;;;7.22;4.60;;;;;;;;;;4978810;28;20419;-84
2021/12/19 08:17:21;;;;;;;6.25;3.90;;;;;;;;;;4977220;28;20147;-84
2021/12/19 08:19:47;;;;;;;5.25;3.88;;;;;;;;;;4978419;28;20031;-84
2021/12/19 08:22:14;;;;;;;6.85;4.40;;;;;;;;;;4978544;28;20109;-84
2021/12/19 08:24:41;;;;;;;8.50;5.45;;;;;;;;;;4979413;28;20600;-84
2021/12/19 08:27:07;;;;;;;8.82;4.95;;;;;;;;;;4978557;28;20038;-83
2021/12/19 08:29:33;;;;;;;7.95;4.13;;;;;;;;;;4977721;28;20031;-84
2021/12/19 08:31:59;;;;;;;6.47;3.58;;;;;;;;;;4977925;28;20026;-83
2021/12/19 08:34:25;;;;;;;9.93;5.13;;;;;;;;;;4976244;28;20373;-84
2021/12/19 08:36:51;;;;;;;9.20;5.25;;;;;;;;;;4977229;28;20058;-84
2021/12/19 08:39:18;;;;;;;7.82;4.60;;;;;;;;;;4978496;28;20478;-84
2021/12/19 08:41:44;;;;;;;6.35;4.53;;;;;;;;;;4991013;28;20007;-85
2021/12/19 08:44:10;;;;;;;9.63;5.68;;;;;;;;;;4995201;28;20053;-85
2021/12/19 08:46:38;;;;;;;10.38;5.78;;;;;;;;;;4979111;28;20054;-84
2021/12/19 08:49:04;;;;;;;10.18;6.07;;;;;;;;;;4983107;28;20031;-84
2021/12/19 08:51:32;;;;;;;11.40;6.28;;;;;;;;;;4982819;28;20027;-83
2021/12/19 08:54:00;;;;;;;13.02;5.95;;;;;;;;;;4985575;28;20038;-83
2021/12/19 08:56:26;;;;;;;11.32;6.60;;;;;;;;;;4981600;28;20508;-83
2021/12/19 08:58:52;;;;;;;11.00;6.22;;;;;;;;;;4980833;28;20049;-84
2021/12/19 09:01:18;;;;;;;9.73;5.93;;;;;;;;;;4980196;28;20034;-83
2021/12/19 09:03:44;;;;;;;12.02;6.82;;;;;;;;;;4980877;28;20027;-84
2021/12/19 09:06:10;;;;;;;14.15;8.13;;;;;;;;;;4977361;28;20030;-84
2021/12/19 09:08:36;;;;;;;12.65;7.28;;;;;;;;;;4978220;28;20038;-84
2021/12/19 09:11:02;;;;;;;14.25;6.88;;;;;;;;;;4979799;28;20541;-84
2021/12/19 09:13:28;;;;;;;19.45;9.98;;;;;;;;;;4980417;28;20023;-82
2021/12/19 09:15:54;;;;;;;18.15;10.32;;;;;;;;;;4983882;28;20034;-81
2021/12/19 09:18:21;;;;;;;25.67;13.18;;;;;;;;;;4978059;28;20476;-82
2021/12/19 09:20:47;;;;;;;16.20;10.00;;;;;;;;;;4976695;28;20030;-84
2021/12/19 09:23:13;;;;;;;19.05;9.38;;;;;;;;;;4975473;28;20496;-82
2021/12/19 09:25:40;;;;;;;17.75;9.45;;;;;;;;;;4975608;28;20056;-83
2021/12/19 09:28:06;;;;;;;24.90;10.43;;;;;;;;;;4976005;28;20041;-84
2021/12/19 09:30:32;;;;;;;20.60;9.43;;;;;;;;;;4974756;28;20552;-83
2021/12/19 09:32:58;;;;;;;25.90;10.82;;;;;;;;;;4977172;28;20031;-83
2021/12/19 09:35:24;;;;;;;16.58;9.32;;;;;;;;;;4978945;28;20492;-82
2021/12/19 09:37:50;;;;;;;20.27;10.77;;;;;;;;;;4977099;28;20169;-82
2021/12/19 09:40:21;;;;;;;17.50;10.38;;;;;;;;;;4976125;28;20058;-83
2021/12/19 09:42:49;;;;;;;20.38;9.90;;;;;;;;;;4976535;28;20089;-83
2021/12/19 09:45:16;;;;;;;21.08;11.20;;;;;;;;;;4974003;28;20509;-82
2021/12/19 09:47:42;;;;;;;21.10;11.80;;;;;;;;;;4975919;28;20041;-83
2021/12/19 09:50:09;;;;;;;22.73;11.88;;;;;;;;;;4976599;28;20023;-83
2021/12/19 09:52:35;;;;;;;21.77;12.10;;;;;;;;;;4977249;28;20081;-83
2021/12/19 09:55:03;;;;;;;24.70;13.05;;;;;;;;;;4975027;28;20027;-84
2021/12/19 09:57:29;;;;;;;29.50;14.18;;;;;;;;;;4977528;28;20110;-82
2021/12/19 09:59:55;;;;;;;26.25;13.20;;;;;;;;;;4975350;28;20054;-82
2021/12/19 10:02:22;;;;;;;23.83;11.98;;;;;;;;;;4976542;28;20023;-83
2021/12/19 10:04:48;;;;;;;20.58;11.20;;;;;;;;;;4982951;28;20050;-83
2021/12/19 10:07:23;;;;;;;19.05;11.27;;;;;;;;;;4992623;28;20039;-84
2021/12/19 10:10:05;;;;;;;18.83;10.90;;;;;;;;;;4992956;28;20042;-83
2021/12/19 10:15:02;;;;;;;18.30;9.23;;;;;;;;;;4979079;28;20038;-84
2021/12/19 10:17:28;;;;;;;16.85;9.93;;;;;;;;;;4979198;28;20054;-85
2021/12/19 10:20:14;;;;;;;18.33;9.48;;;;;;;;;;4979341;28;20027;-84
2021/12/19 10:22:44;;;;;;;15.45;8.80;;;;;;;;;;4980333;28;20027;-84
2021/12/19 10:25:19;;;;;;;23.95;12.65;;;;;;;;;;4992406;28;20025;-85
2021/12/19 10:27:51;;;;;;;25.48;13.90;;;;;;;;;;4992706;28;20034;-87
2021/12/19 10:30:17;;;;;;;30.35;15.02;;;;;;;;;;4986446;28;20030;-86
2021/12/19 10:33:02;;;;;;;26.58;13.85;;;;;;;;;;4973285;28;20404;-85
2021/12/19 10:35:39;;;;;;;22.00;12.02;;;;;;;;;;4971549;28;20033;-86
2021/12/19 10:38:14;;;;;;;20.17;10.93;;;;;;;;;;4971955;28;20035;-85
2021/12/19 10:40:44;;;;;;;21.17;11.20;;;;;;;;;;4973067;28;20031;-83
2021/12/19 10:43:16;;;;;;;21.10;12.15;;;;;;;;;;4971902;28;20487;-83
2021/12/19 10:45:45;;;;;;;20.52;11.30;;;;;;;;;;4965031;28;20019;-82
2021/12/19 10:48:30;;;;;;;20.30;10.85;;;;;;;;;;4956223;28;20031;-82
2021/12/19 10:50:56;;;;;;;22.48;10.82;;;;;;;;;;4974482;28;20535;-82
2021/12/19 10:53:27;;;;;;;20.08;10.45;;;;;;;;;;4980430;28;20034;-84
2021/12/19 10:55:53;;;;;;;20.65;9.77;;;;;;;;;;4981658;28;20023;-81
2021/12/19 10:58:20;;;;;;;23.23;11.85;;;;;;;;;;4981208;28;20031;-81
2021/12/19 11:01:03;;;;;;;21.15;10.25;;;;;;;;;;4977848;28;20034;-82
2021/12/19 11:03:33;;;;;;;21.05;10.95;;;;;;;;;;4976718;28;20037;-82
2021/12/19 11:05:59;;;;;;;21.23;11.45;;;;;;;;;;4976961;28;20066;-81
2021/12/19 11:08:30;;;;;;;19.42;10.82;;;;;;;;;;4976658;28;20027;-82
2021/12/19 11:10:57;;;;;;;20.25;11.63;;;;;;;;;;4996354;28;20031;-82
2021/12/19 11:13:23;;;;;;;17.95;9.82;;;;;;;;;;4980512;28;20034;-82
2021/12/19 11:15:50;;;;;;;17.60;10.30;;;;;;;;;;4987356;28;20019;-82
2021/12/19 11:18:16;;;;;;;17.92;10.00;;;;;;;;;;4978735;28;20030;-81
2021/12/19 11:20:42;;;;;;;20.05;11.52;;;;;;;;;;4976723;28;20023;-81
2021/12/19 11:23:09;;;;;;;24.15;11.82;;;;;;;;;;4977903;28;20062;-82
2021/12/19 11:25:35;;;;;;;20.88;12.00;;;;;;;;;;4994782;28;20031;-84
2021/12/19 11:28:02;;;;;;;26.38;13.23;;;;;;;;;;4991574;28;20031;-84
2021/12/19 11:30:28;;;;;;;24.33;13.43;;;;;;;;;;4978173;28;20027;-83
2021/12/19 11:32:57;;;;;;;27.15;13.57;;;;;;;;;;4977587;28;20027;-83
2021/12/19 11:35:24;;;;;;;23.60;12.57;;;;;;;;;;4976773;28;20019;-86
2021/12/19 11:37:52;;;;;;;34.65;17.00;;;;;;;;;;4977240;28;20039;-82
2021/12/19 11:40:19;;;;;;;22.67;13.32;;;;;;;;;;4978759;28;20046;-83
2021/12/19 11:42:45;;;;;;;27.70;14.05;;;;;;;;;;4976131;28;20389;-83
2021/12/19 11:48:10;;;;;;;30.60;14.68;;;;;;;;;;4977074;28;20070;-82
2021/12/19 11:50:45;;;;;;;23.92;13.50;;;;;;;;;;4977771;28;20030;-82
2021/12/19 11:53:11;;;;;;;25.55;13.27;;;;;;;;;;4976937;28;20098;-83
2021/12/19 11:55:43;;;;;;;26.98;13.20;;;;;;;;;;4976417;28;20400;-82
2021/12/19 11:58:45;;;;;;;;;;;;;;;;;;;;;
2021/12/19 12:01:51;;;;;;;24.20;12.32;;;;;;;;;;4967151;28;20440;-85
2021/12/19 12:04:23;;;;;;;22.90;13.30;;;;;;;;;;4979552;28;20117;-84
2021/12/19 12:06:56;;;;;;;24.20;13.45;;;;;;;;;;4978482;28;20030;-86
2021/12/19 12:09:48;;;;;;;28.85;14.85;;;;;;;;;;4977013;28;20031;-84
2021/12/19 12:12:17;;;;;;;23.15;13.75;;;;;;;;;;4989634;28;20089;-81
2021/12/19 12:15:04;;;;;;;22.20;13.07;;;;;;;;;;4977295;28;20457;-83
2021/12/19 12:17:35;;;;;;;22.58;13.52;;;;;;;;;;4978410;28;20027;-83
2021/12/19 12:20:13;;;;;;;28.27;13.70;;;;;;;;;;4980298;28;20023;-85
2021/12/19 12:22:47;;;;;;;23.05;13.05;;;;;;;;;;4976043;28;20061;-84
2021/12/19 12:25:20;;;;;;;24.02;13.38;;;;;;;;;;4976576;28;20023;-85
2021/12/19 12:28:02;;;;;;;28.38;14.30;;;;;;;;;;4970059;28;20069;-85
2021/12/19 12:30:28;;;;;;;26.67;14.10;;;;;;;;;;4956047;29;20050;-86
2021/12/19 12:32:56;;;;;;;24.60;13.77;;;;;;;;;;4956772;28;20493;-85
2021/12/19 12:35:23;;;;;;;23.65;13.55;;;;;;;;;;4956409;28;20027;-85
2021/12/19 12:37:51;;;;;;;26.13;13.70;;;;;;;;;;4972041;28;20564;-84
2021/12/19 12:40:42;;;;;;;23.50;13.32;;;;;;;;;;4962727;28;20503;-85
2021/12/19 12:43:14;;;;;;;25.40;13.75;;;;;;;;;;4976091;28;20030;-85
2021/12/19 12:45:54;;;;;;;28.70;14.07;;;;;;;;;;4977075;28;20030;-84
2021/12/19 12:48:28;;;;;;;25.42;13.35;;;;;;;;;;4980277;28;20034;-85
2021/12/19 12:50:56;;;;;;;22.50;12.55;;;;;;;;;;4981541;28;20019;-85
2021/12/19 12:53:49;;;;;;;26.70;13.02;;;;;;;;;;4982272;28;20030;-85
2021/12/19 12:56:21;;;;;;;24.83;12.55;;;;;;;;;;4966527;28;20497;-85
2021/12/19 12:59:07;;;;;;;24.10;12.23;;;;;;;;;;4980444;28;20117;-85
2021/12/19 13:01:43;;;;;;;24.77;12.48;;;;;;;;;;4981186;28;20041;-85
2021/12/19 13:04:13;;;;;;;27.05;15.10;;;;;;;;;;4977791;28;20031;-85
2021/12/19 13:06:39;;;;;;;28.85;14.48;;;;;;;;;;4982194;28;20106;-85
2021/12/19 13:09:31;;;;;;;27.13;14.05;;;;;;;;;;4981626;28;20053;-84
2021/12/19 13:12:02;;;;;;;28.98;14.35;;;;;;;;;;4982283;28;20027;-85
2021/12/19 13:14:30;;;;;;;24.80;13.10;;;;;;;;;;4984050;28;20079;-85
2021/12/19 13:16:58;;;;;;;21.02;11.55;;;;;;;;;;4998230;28;20042;-85
2021/12/19 13:19:44;;;;;;;24.25;11.48;;;;;;;;;;4986855;28;20030;-83
2021/12/19 13:22:13;;;;;;;26.60;12.82;;;;;;;;;;4984966;28;20524;-84
2021/12/19 13:24:40;;;;;;;30.25;16.08;;;;;;;;;;4981503;28;20090;-84
2021/12/19 13:27:08;;;;;;;26.88;13.93;;;;;;;;;;4979471;28;20033;-85
2021/12/19 13:30:01;;;;;;;27.33;14.18;;;;;;;;;;4978656;28;20049;-87
2021/12/19 13:32:32;;;;;;;25.80;12.55;;;;;;;;;;4977838;28;20035;-87
2021/12/19 13:34:59;;;;;;;26.05;13.55;;;;;;;;;;4978735;28;20550;-85
2021/12/19 13:37:26;;;;;;;26.77;13.43;;;;;;;;;;4977710;28;20031;-86
2021/12/19 13:40:04;;;;;;;24.08;12.85;;;;;;;;;;4978918;28;20037;-86
2021/12/19 13:42:42;;;;;;;23.77;13.43;;;;;;;;;;4977111;28;20496;-86
2021/12/19 13:45:27;;;;;;;20.15;11.45;;;;;;;;;;4989927;28;20052;-85
2021/12/19 13:47:53;;;;;;;24.15;13.70;;;;;;;;;;4977384;28;20501;-85
2021/12/19 13:50:19;;;;;;;28.35;14.27;;;;;;;;;;4982548;28;20097;-84
2021/12/19 13:52:46;;;;;;;28.08;14.05;;;;;;;;;;4977559;28;20053;-85
2021/12/19 13:55:14;;;;;;;27.15;14.88;;;;;;;;;;4979172;28;20027;-85
2021/12/19 13:57:40;;;;;;;27.02;14.85;;;;;;;;;;4975684;28;20101;-85
2021/12/19 14:00:09;;;;;;;26.75;13.40;;;;;;;;;;4975302;28;20034;-86
2021/12/19 14:05:46;;;;;;;24.77;12.68;;;;;;;;;;4979280;28;20050;-86
2021/12/19 14:08:18;;;;;;;24.27;12.88;;;;;;;;;;4986394;28;20026;-85
2021/12/19 14:10:44;;;;;;;18.45;10.77;;;;;;;;;;4998807;28;20030;-86
2021/12/19 14:13:29;;;;;;;21.65;11.55;;;;;;;;;;4987041;28;20027;-83
2021/12/19 14:15:55;;;;;;;25.48;12.48;;;;;;;;;;4983741;28;20007;-85
2021/12/19 14:18:40;;;;;;;22.02;11.57;;;;;;;;;;4978355;28;20016;-86
2021/12/19 14:21:26;;;;;;;26.40;14.82;;;;;;;;;;4989282;28;20082;-84
2021/12/19 14:24:09;;;;;;;26.02;14.23;;;;;;;;;;4987106;28;20022;-86
2021/12/19 14:26:59;;;;;;;27.25;13.00;;;;;;;;;;4987900;28;20097;-85
2021/12/19 14:29:27;;;;;;;21.92;13.18;;;;;;;;;;4987645;28;20069;-83
2021/12/19 14:32:00;;;;;;;23.40;13.25;;;;;;;;;;4988036;28;20023;-88
2021/12/19 14:34:31;;;;;;;30.55;17.02;;;;;;;;;;4984904;28;20034;-84
2021/12/19 14:37:11;;;;;;;23.65;13.95;;;;;;;;;;4982451;28;20129;-84
2021/12/19 14:39:40;;;;;;;22.30;11.68;;;;;;;;;;4982037;28;20039;-86
2021/12/19 14:42:08;;;;;;;19.45;11.55;;;;;;;;;;4981880;28;20038;-83
2021/12/19 14:44:34;;;;;;;25.17;13.05;;;;;;;;;;4980531;28;20490;-83
2021/12/19 14:47:01;;;;;;;21.75;11.82;;;;;;;;;;4984505;28;20031;-83
2021/12/19 14:49:36;;;;;;;23.92;13.48;;;;;;;;;;4978467;28;20026;-84
2021/12/19 14:52:02;;;;;;;23.75;12.52;;;;;;;;;;4980799;28;20053;-82
2021/12/19 14:54:28;;;;;;;23.08;13.63;;;;;;;;;;4982195;28;20030;-81
2021/12/19 14:56:57;;;;;;;25.98;15.02;;;;;;;;;;4991646;28;20082;-82
2021/12/19 14:59:27;;;;;;;23.83;12.75;;;;;;;;;;4992819;28;20061;-83
2021/12/19 15:01:54;;;;;;;26.20;14.55;;;;;;;;;;4987952;28;20038;-83
2021/12/19 15:04:20;;;;;;;23.48;13.80;;;;;;;;;;4985439;28;20027;-83
2021/12/19 15:06:52;;;;;;;28.67;16.20;;;;;;;;;;4988028;28;20058;-84
2021/12/19 15:09:19;;;;;;;26.27;13.93;;;;;;;;;;4985828;28;20023;-83
2021/12/19 15:11:46;;;;;;;26.45;13.68;;;;;;;;;;4984387;28;20496;-82
2021/12/19 15:14:12;;;;;;;24.65;14.27;;;;;;;;;;4982919;28;20050;-82
2021/12/19 15:16:39;;;;;;;21.70;12.57;;;;;;;;;;4981882;28;20076;-82
2021/12/19 15:19:07;;;;;;;23.02;13.23;;;;;;;;;;4984620;28;20026;-83
2021/12/19 15:21:33;;;;;;;23.40;13.20;;;;;;;;;;4984181;28;20030;-81
2021/12/19 15:24:00;;;;;;;22.50;12.98;;;;;;;;;;4983470;28;20033;-82
2021/12/19 15:26:26;;;;;;;21.88;13.00;;;;;;;;;;4983863;28;20435;-83
2021/12/19 15:28:52;;;;;;;27.90;13.20;;;;;;;;;;4984304;28;20043;-83
2021/12/19 15:31:20;;;;;;;25.48;14.70;;;;;;;;;;4983343;28;20078;-83
2021/12/19 15:33:46;;;;;;;25.20;13.90;;;;;;;;;;4984065;28;20019;-83
2021/12/19 15:36:13;;;;;;;23.13;13.10;;;;;;;;;;4983553;28;20102;-82
2021/12/19 15:38:40;;;;;;;23.17;14.23;;;;;;;;;;4983732;28;20031;-82
2021/12/19 15:41:06;;;;;;;23.70;13.75;;;;;;;;;;4986656;28;20058;-83
2021/12/19 15:43:32;;;;;;;25.67;14.23;;;;;;;;;;4985445;28;20027;-82
2021/12/19 15:45:58;;;;;;;26.45;13.10;;;;;;;;;;4984664;28;20027;-82
2021/12/19 15:48:25;;;;;;;25.45;14.13;;;;;;;;;;4987176;28;20038;-84
2021/12/19 15:50:58;;;;;;;22.98;12.95;;;;;;;;;;4984023;28;20030;-83